Terminal Aerodrome Forecast
Issued by NWS

Home | Current Version | Previous Version | Graphics & Text | Print | Product List | Glossary On
Versions: 1 2 3 4 5 6 7 8 9 10 11 12 13 14 15 16
000
FTUS43 KMPX 282343
TAFAXN
TAF
KAXN 282343Z 2900/2924 16012KT P6SM SCT030 BKN100
      TEMPO 2904/2907 TSRA OVC050CB
     FM290800 18010KT P6SM BKN060
     FM291800 25009KT P6SM SCT250=

USA.gov is the U.S. government's official web portal to all federal, state and local government web resources and services.